createdAt,value
2023-05-08T00:01:39.134Z,99013.63
2023-05-08T00:04:06.828Z,99014.91
2023-05-08T00:06:35.387Z,99012.97
2023-05-08T00:09:02.243Z,99015.69
2023-05-08T00:11:29.249Z,99013.13
2023-05-08T00:13:56.042Z,99014.75
2023-05-08T00:16:22.920Z,99016.19
2023-05-08T00:18:54.160Z,99007.03
2023-05-08T00:21:21.154Z,99012.50
2023-05-08T00:23:47.974Z,99016.22
2023-05-08T00:26:15.033Z,99012.34
2023-05-08T00:28:45.120Z,99017.34
2023-05-08T00:31:11.927Z,99016.03
2023-05-08T00:33:38.646Z,99016.69
2023-05-08T00:36:06.033Z,99017.16
2023-05-08T00:38:36.951Z,99017.66
2023-05-08T00:41:04.309Z,99012.97
2023-05-08T00:43:31.109Z,99017.31
2023-05-08T00:46:01.717Z,99013.94
2023-05-08T00:48:34.578Z,99018.91
2023-05-08T00:51:04.434Z,99022.00
2023-05-08T00:53:39.190Z,99021.66
2023-05-08T00:56:20.336Z,99021.34
2023-05-08T00:58:48.177Z,99024.72
2023-05-08T01:01:16.131Z,99020.72
2023-05-08T01:03:44.988Z,99023.94
2023-05-08T01:06:14.960Z,99031.31
2023-05-08T01:08:45.876Z,99027.31
2023-05-08T01:11:37.118Z,99032.78
2023-05-08T01:14:34.522Z,99029.53
2023-05-08T01:17:16.694Z,99038.38
2023-05-08T01:20:10.486Z,99040.16
2023-05-08T01:23:05.419Z,99041.75
2023-05-08T01:25:35.295Z,99037.72
2023-05-08T01:28:59.850Z,99040.94
2023-05-08T01:32:15.734Z,99047.84
2023-05-08T01:35:16.578Z,99040.94
2023-05-08T01:38:14.987Z,99033.72
2023-05-08T01:40:52.825Z,99038.72
2023-05-08T01:43:39.180Z,99044.84
2023-05-08T01:46:18.260Z,99044.00
2023-05-08T01:48:53.764Z,99047.88
2023-05-08T01:51:27.820Z,99043.53
2023-05-08T01:54:08.088Z,99050.28
2023-05-08T01:56:40.241Z,99045.47
2023-05-08T01:59:10.295Z,99046.91
2023-05-08T02:01:37.087Z,99043.41
2023-05-08T02:04:08.049Z,99048.69
2023-05-08T02:06:37.267Z,99048.03
2023-05-08T02:09:08.045Z,99046.59
2023-05-08T02:11:38.812Z,99045.31
2023-05-08T02:14:08.855Z,99052.06
2023-05-08T02:16:40.256Z,99049.97
2023-05-08T02:19:10.690Z,99056.56
2023-05-08T02:21:39.885Z,99048.53
2023-05-08T02:24:08.733Z,99048.53
2023-05-08T02:26:39.616Z,99048.84
2023-05-08T02:29:08.207Z,99047.91
2023-05-08T02:31:37.131Z,99049.50
2023-05-08T02:34:08.170Z,99046.13
2023-05-08T02:36:37.477Z,99049.00
2023-05-08T02:39:08.013Z,99048.34
2023-05-08T02:41:40.502Z,99054.94
2023-05-08T02:44:08.464Z,99050.28
2023-05-08T02:46:49.434Z,99046.91
2023-05-08T02:49:32.015Z,99046.91
2023-05-08T02:52:19.015Z,99052.84
2023-05-08T02:55:19.449Z,99054.00
2023-05-08T02:57:57.056Z,99052.84
2023-05-08T03:00:42.552Z,99056.56
2023-05-08T03:03:45.488Z,99061.38
2023-05-08T03:06:19.326Z,99060.25
2023-05-08T03:08:49.035Z,99058.16
2023-05-08T03:11:24.510Z,99055.13
2023-05-08T03:13:58.901Z,99061.06
2023-05-08T03:16:31.178Z,99052.53
2023-05-08T03:19:08.226Z,99049.50
2023-05-08T03:21:38.697Z,99046.78
2023-05-08T03:24:09.145Z,99045.47
2023-05-08T03:26:37.363Z,99051.75
2023-05-08T03:29:06.307Z,99051.75
2023-05-08T03:31:35.244Z,99058.97
2023-05-08T03:34:04.409Z,99059.13
2023-05-08T03:36:31.953Z,99060.75
2023-05-08T03:39:00.869Z,99051.59
2023-05-08T03:41:27.818Z,99057.53
2023-05-08T03:43:57.346Z,99052.41
2023-05-08T03:46:25.817Z,99051.44
2023-05-08T03:48:54.664Z,99059.00
2023-05-08T03:51:22.613Z,99053.66
2023-05-08T03:53:49.366Z,99058.34
2023-05-08T03:56:17.449Z,99059.28
2023-05-08T03:59:12.085Z,99061.72
2023-05-08T04:01:43.598Z,99053.84
2023-05-08T04:04:33.471Z,99057.53
2023-05-08T04:07:11.248Z,99063.00
2023-05-08T04:10:09.758Z,99071.03
2023-05-08T04:13:01.620Z,99065.56
2023-05-08T04:15:32.966Z,99063.31
2023-05-08T04:18:06.836Z,99069.91
2023-05-08T04:20:34.983Z,99071.19
2023-05-08T04:23:04.408Z,99071.53
2023-05-08T04:25:36.006Z,99073.59
2023-05-08T04:28:03.535Z,99070.88
2023-05-08T04:30:30.627Z,99082.28
2023-05-08T04:32:59.451Z,99071.66
2023-05-08T04:35:26.679Z,99080.34
2023-05-08T04:37:53.912Z,99083.25
2023-05-08T04:40:21.005Z,99088.69
2023-05-08T04:42:47.948Z,99081.63
2023-05-08T04:45:15.141Z,99085.63
2023-05-08T04:47:42.033Z,99092.88
2023-05-08T04:50:09.822Z,99090.16
2023-05-08T04:52:36.829Z,99093.53
2023-05-08T04:55:04.345Z,99091.91
2023-05-08T04:57:31.221Z,99095.44
2023-05-08T04:59:58.053Z,99090.16
2023-05-08T05:02:26.901Z,99092.88
2023-05-08T05:04:53.741Z,99095.44
2023-05-08T05:07:20.545Z,99093.03
2023-05-08T05:09:47.286Z,99101.53
2023-05-08T05:12:14.454Z,99100.91
2023-05-08T05:14:41.814Z,99107.81
2023-05-08T05:17:09.084Z,99101.69
2023-05-08T05:19:35.879Z,99101.06
2023-05-08T05:22:03.485Z,99112.16
2023-05-08T05:24:30.942Z,99110.06
2023-05-08T05:26:58.482Z,99114.41
2023-05-08T05:29:25.353Z,99108.78
2023-05-08T05:31:52.180Z,99113.59
2023-05-08T05:34:19.088Z,99115.53
2023-05-08T05:36:45.861Z,99121.78
2023-05-08T05:39:14.346Z,99117.13
2023-05-08T05:41:44.574Z,99119.72
2023-05-08T05:44:11.578Z,99116.03
2023-05-08T05:46:44.068Z,99126.31
2023-05-08T05:49:12.256Z,99119.38
2023-05-08T05:51:39.002Z,99124.69
2023-05-08T05:54:05.957Z,99126.44
2023-05-08T05:56:32.837Z,99131.28
2023-05-08T05:58:59.599Z,99129.00
2023-05-08T06:01:29.431Z,99130.28
2023-05-08T06:03:56.393Z,99124.00
2023-05-08T06:06:23.349Z,99131.72
2023-05-08T06:08:50.181Z,99133.66
2023-05-08T06:11:19.832Z,99125.47
2023-05-08T06:13:50.693Z,99134.16
2023-05-08T06:16:17.737Z,99140.56
2023-05-08T06:18:44.492Z,99144.13
2023-05-08T06:21:11.275Z,99140.25
2023-05-08T06:23:38.059Z,99137.53
2023-05-08T06:26:04.878Z,99142.00
2023-05-08T06:28:31.611Z,99141.22
2023-05-08T06:30:58.498Z,99144.44
2023-05-08T06:33:27.074Z,99138.97
2023-05-08T06:35:54.178Z,99133.81
2023-05-08T06:38:21.294Z,99142.00
2023-05-08T06:40:50.204Z,99140.41
2023-05-08T06:43:17.166Z,99140.41
2023-05-08T06:45:45.395Z,99147.34
2023-05-08T06:48:12.256Z,99141.38
2023-05-08T06:50:40.899Z,99137.53
2023-05-08T06:53:08.099Z,99140.25
2023-05-08T06:55:35.179Z,99141.88
2023-05-08T06:58:02.126Z,99147.47
2023-05-08T07:00:29.664Z,99140.41
2023-05-08T07:02:56.523Z,99144.44
2023-05-08T07:05:23.553Z,99136.72
2023-05-08T07:07:50.420Z,99142.00
2023-05-08T07:10:20.994Z,99144.75
2023-05-08T07:12:48.934Z,99142.78
2023-05-08T07:15:25.214Z,99139.25
2023-05-08T07:17:53.568Z,99146.66
2023-05-08T07:20:21.309Z,99150.03
2023-05-08T07:22:48.236Z,99148.91
2023-05-08T07:25:15.295Z,99147.31
2023-05-08T07:27:43.140Z,99157.13
2023-05-08T07:30:10.696Z,99157.59
2023-05-08T07:32:39.129Z,99154.06
2023-05-08T07:35:10.837Z,99159.06
2023-05-08T07:37:39.606Z,99156.63
2023-05-08T07:40:07.481Z,99151.66
2023-05-08T07:42:46.997Z,99155.97
2023-05-08T07:45:14.247Z,99164.34
2023-05-08T07:47:57.675Z,99163.88
2023-05-08T07:50:26.548Z,99157.94
2023-05-08T07:52:53.855Z,99159.06
2023-05-08T07:55:21.865Z,99160.31
2023-05-08T07:57:48.843Z,99157.41
2023-05-08T08:00:16.173Z,99168.03
2023-05-08T08:02:45.032Z,99162.88
2023-05-08T08:05:13.294Z,99161.63
2023-05-08T08:07:40.347Z,99166.28
2023-05-08T08:10:08.468Z,99171.75
2023-05-08T08:12:35.541Z,99165.16
2023-05-08T08:15:03.099Z,99171.09
2023-05-08T08:17:29.913Z,99173.53
2023-05-08T08:19:57.071Z,99180.13
2023-05-08T08:22:25.705Z,99176.56
2023-05-08T08:24:55.872Z,99176.56
2023-05-08T08:27:23.247Z,99173.03
2023-05-08T08:29:52.641Z,99171.91
2023-05-08T08:32:26.283Z,99174.78
2023-05-08T08:34:53.427Z,99178.47
2023-05-08T08:37:20.188Z,99175.91
2023-05-08T08:39:48.757Z,99179.44
2023-05-08T08:42:15.741Z,99175.25
2023-05-08T08:44:43.073Z,99182.19
2023-05-08T08:47:14.515Z,99178.81
2023-05-08T08:49:49.217Z,99187.03
2023-05-08T08:52:22.255Z,99185.72
2023-05-08T08:54:51.465Z,99178.34
2023-05-08T08:57:20.585Z,99186.84
2023-05-08T08:59:47.846Z,99192.50
2023-05-08T09:02:19.334Z,99198.94
2023-05-08T09:04:49.758Z,99196.00
2023-05-08T09:07:18.475Z,99192.34
2023-05-08T09:09:46.870Z,99185.91
2023-05-08T09:12:14.447Z,99189.91
2023-05-08T09:14:41.432Z,99188.16
2023-05-08T09:17:09.535Z,99193.94
2023-05-08T09:19:37.072Z,99187.34
2023-05-08T09:22:06.881Z,99187.50
2023-05-08T09:25:01.122Z,99188.28
2023-05-08T09:27:31.233Z,99188.47
2023-05-08T09:30:10.621Z,99193.47
2023-05-08T09:32:39.925Z,99184.63
2023-05-08T09:35:09.979Z,99184.75
2023-05-08T09:37:46.518Z,99190.38
2023-05-08T09:40:22.425Z,99192.31
2023-05-08T09:42:50.761Z,99192.47
2023-05-08T09:45:31.976Z,99190.03
2023-05-08T09:47:59.581Z,99198.19
2023-05-08T09:50:27.569Z,99205.25
2023-05-08T09:52:54.376Z,99204.13
2023-05-08T09:55:22.393Z,99206.81
2023-05-08T09:57:59.016Z,99196.97
2023-05-08T10:00:29.332Z,99206.28
2023-05-08T10:03:02.848Z,99208.53
2023-05-08T10:05:35.847Z,99205.94
2023-05-08T10:08:21.480Z,99204.72
2023-05-08T10:10:48.454Z,99205.81
2023-05-08T10:13:15.522Z,99206.03
2023-05-08T10:15:44.406Z,99210.34
2023-05-08T10:18:12.310Z,99213.22
2023-05-08T10:20:42.385Z,99207.81
2023-05-08T10:23:16.750Z,99206.13
2023-05-08T10:25:54.181Z,99209.97
2023-05-08T10:28:58.999Z,99203.84
2023-05-08T10:31:28.662Z,99212.38
2023-05-08T10:33:59.025Z,99200.97
2023-05-08T10:36:30.371Z,99206.22
2023-05-08T10:38:58.996Z,99211.50
2023-05-08T10:41:28.123Z,99194.13
2023-05-08T10:43:55.426Z,99197.16
2023-05-08T10:47:15.371Z,99196.94
2023-05-08T10:50:02.050Z,99194.22
2023-05-08T10:52:50.900Z,99182.53
2023-05-08T10:55:32.172Z,99187.59
2023-05-08T10:58:06.321Z,99186.66
2023-05-08T11:00:54.018Z,99192.16
2023-05-08T11:03:32.085Z,99182.31
2023-05-08T11:06:01.840Z,99181.09
2023-05-08T11:08:31.201Z,99181.75
2023-05-08T11:11:10.379Z,99186.81
2023-05-08T11:14:15.985Z,99179.13
2023-05-08T11:16:55.281Z,99191.47
2023-05-08T11:19:24.334Z,99185.44
2023-05-08T11:22:24.706Z,99182.31
2023-05-08T11:25:03.824Z,99178.09
2023-05-08T11:27:37.870Z,99180.03
2023-05-08T11:30:30.797Z,99179.47
2023-05-08T11:33:03.996Z,99169.41
2023-05-08T11:36:13.010Z,99170.66
2023-05-08T11:38:40.973Z,99164.00
2023-05-08T11:41:21.903Z,99173.00
2023-05-08T11:44:01.073Z,99168.81
2023-05-08T11:46:51.485Z,99171.41
2023-05-08T11:49:27.089Z,99171.19
2023-05-08T11:51:59.412Z,99168.22
2023-05-08T11:54:30.741Z,99166.06
2023-05-08T11:56:59.427Z,99159.19
2023-05-08T11:59:26.723Z,99167.06
2023-05-08T12:04:23.585Z,99163.41
2023-05-08T12:06:57.505Z,99162.97
2023-05-08T12:09:24.433Z,99164.91
2023-05-08T12:11:58.119Z,99162.41
2023-05-08T12:14:25.275Z,99165.16
2023-05-08T12:17:19.028Z,99163.53
2023-05-08T12:19:45.827Z,99162.09
2023-05-08T12:22:12.822Z,99159.66
2023-05-08T12:24:39.820Z,99163.59
2023-05-08T12:27:07.608Z,99167.19
2023-05-08T12:29:37.190Z,99162.00
2023-05-08T12:32:04.385Z,99162.06
2023-05-08T12:34:31.254Z,99158.59
2023-05-08T12:37:05.369Z,99162.25
2023-05-08T12:39:37.570Z,99162.16
2023-05-08T12:42:06.014Z,99162.16
2023-05-08T12:44:32.890Z,99171.03
2023-05-08T12:47:00.152Z,99170.38
2023-05-08T12:49:30.415Z,99162.84
2023-05-08T12:52:09.021Z,99161.16
2023-05-08T12:54:39.163Z,99168.09
2023-05-08T12:57:14.408Z,99159.84
2023-05-08T12:59:43.493Z,99164.13
2023-05-08T13:02:20.874Z,99151.72
2023-05-08T13:04:47.922Z,99154.59
2023-05-08T13:07:15.026Z,99153.53
2023-05-08T13:09:57.796Z,99147.66
2023-05-08T13:12:24.636Z,99161.16
2023-05-08T13:14:52.744Z,99153.16
2023-05-08T13:17:19.688Z,99154.13
2023-05-08T13:19:46.622Z,99162.41
2023-05-08T13:22:13.753Z,99154.63
2023-05-08T13:24:40.594Z,99153.69
2023-05-08T13:27:07.463Z,99151.84
2023-05-08T13:29:34.501Z,99151.28
2023-05-08T13:32:01.607Z,99154.88
2023-05-08T13:34:28.800Z,99140.31
2023-05-08T13:36:55.690Z,99137.25
2023-05-08T13:39:22.484Z,99143.06
2023-05-08T13:41:49.226Z,99134.66
2023-05-08T13:44:16.041Z,99141.59
2023-05-08T13:46:42.882Z,99138.50
2023-05-08T13:49:09.642Z,99144.28
2023-05-08T13:51:37.697Z,99139.81
2023-05-08T13:54:04.553Z,99138.84
2023-05-08T13:56:31.518Z,99134.97
2023-05-08T13:59:01.085Z,99131.75
2023-05-08T14:01:28.411Z,99143.88
2023-05-08T14:03:55.850Z,99141.81
2023-05-08T14:06:22.912Z,99144.31
2023-05-08T14:08:52.788Z,99143.81
2023-05-08T14:11:22.248Z,99141.63
2023-05-08T14:13:49.162Z,99137.16
2023-05-08T14:16:16.510Z,99136.34
2023-05-08T14:18:43.499Z,99132.81
2023-05-08T14:21:10.547Z,99131.66
2023-05-08T14:23:38.740Z,99139.69
2023-05-08T14:26:05.946Z,99144.00
2023-05-08T14:28:32.790Z,99143.16
2023-05-08T14:30:59.824Z,99145.06
2023-05-08T14:33:26.943Z,99135.91
2023-05-08T14:35:53.711Z,99142.19
2023-05-08T14:38:20.493Z,99140.94
2023-05-08T14:40:51.025Z,99138.50
2023-05-08T14:43:18.209Z,99138.41
2023-05-08T14:45:45.200Z,99133.25
2023-05-08T14:48:12.937Z,99131.63
2023-05-08T14:50:40.182Z,99128.13
2023-05-08T14:53:07.494Z,99128.56
2023-05-08T14:55:34.744Z,99131.19
2023-05-08T14:58:05.358Z,99124.22
2023-05-08T15:00:32.348Z,99121.50
2023-05-08T15:02:59.849Z,99119.22
2023-05-08T15:05:27.399Z,99114.97
2023-05-08T15:07:54.902Z,99109.16
2023-05-08T15:10:21.746Z,99110.22
2023-05-08T15:12:50.789Z,99120.63
2023-05-08T15:15:18.171Z,99116.63
2023-05-08T15:17:44.964Z,99122.72
2023-05-08T15:20:11.877Z,99127.72
2023-05-08T15:22:40.714Z,99124.63
2023-05-08T15:25:07.892Z,99120.28
2023-05-08T15:27:34.636Z,99130.00
2023-05-08T15:30:04.880Z,99129.19
2023-05-08T15:32:33.117Z,99127.81
2023-05-08T15:35:00.127Z,99135.09
2023-05-08T15:37:27.671Z,99126.56
2023-05-08T15:39:54.647Z,99127.69
2023-05-08T15:42:21.399Z,99133.63
2023-05-08T15:47:19.365Z,99138.56
2023-05-08T15:49:46.124Z,99135.81
2023-05-08T15:52:16.055Z,99144.66
2023-05-08T15:54:42.840Z,99134.13
2023-05-08T15:57:09.848Z,99135.28
2023-05-08T15:59:37.663Z,99140.81
2023-05-08T16:02:04.790Z,99131.09
2023-05-08T16:04:31.760Z,99117.28
2023-05-08T16:07:01.839Z,99127.84
2023-05-08T16:09:28.867Z,99131.66
2023-05-08T16:11:56.143Z,99126.72
2023-05-08T16:14:23.245Z,99125.25
2023-05-08T16:16:50.079Z,99137.94
2023-05-08T16:19:18.065Z,99133.34
2023-05-08T16:21:47.932Z,99139.44
2023-05-08T16:24:15.610Z,99140.44
2023-05-08T16:26:42.437Z,99142.41
2023-05-08T16:29:09.469Z,99144.91
2023-05-08T16:31:36.412Z,99146.28
2023-05-08T16:34:03.220Z,99136.09
2023-05-08T16:36:30.213Z,99137.69
2023-05-08T16:38:57.051Z,99132.19
2023-05-08T16:41:23.934Z,99130.81
2023-05-08T16:43:51.000Z,99131.47
2023-05-08T16:46:26.707Z,99123.69
2023-05-08T16:48:56.658Z,99132.13
2023-05-08T16:51:23.508Z,99125.25
2023-05-08T16:53:50.377Z,99125.72
2023-05-08T16:56:18.554Z,99135.66
2023-05-08T16:58:45.396Z,99134.88
2023-05-08T17:01:12.957Z,99126.97
2023-05-08T17:03:40.092Z,99124.69
2023-05-08T17:06:10.763Z,99129.72
2023-05-08T17:08:37.667Z,99123.31
2023-05-08T17:11:04.551Z,99122.75
2023-05-08T17:13:31.624Z,99127.28
2023-05-08T17:15:58.542Z,99123.28
2023-05-08T17:18:25.608Z,99132.78
2023-05-08T17:20:52.434Z,99135.19
2023-05-08T17:23:19.345Z,99135.38
2023-05-08T17:25:46.233Z,99135.13
2023-05-08T17:28:13.184Z,99133.44
2023-05-08T17:30:40.082Z,99136.38
2023-05-08T17:33:07.168Z,99131.56
2023-05-08T17:35:34.166Z,99136.91
2023-05-08T17:38:01.083Z,99140.34
2023-05-08T17:40:32.014Z,99146.84
2023-05-08T17:43:01.730Z,99145.09
2023-05-08T17:45:28.549Z,99146.59
2023-05-08T17:47:55.703Z,99152.06
2023-05-08T17:50:22.681Z,99151.56
2023-05-08T17:52:49.433Z,99154.19
2023-05-08T17:55:16.877Z,99165.34
2023-05-08T17:57:43.686Z,99148.28
2023-05-08T18:00:11.660Z,99153.78
2023-05-08T18:02:38.825Z,99158.00
2023-05-08T18:05:06.278Z,99153.50
2023-05-08T18:07:33.194Z,99151.13
2023-05-08T18:10:00.332Z,99157.56
2023-05-08T18:12:27.107Z,99153.41
2023-05-08T18:14:54.042Z,99153.94
2023-05-08T18:17:22.409Z,99159.28
2023-05-08T18:19:49.225Z,99154.94
2023-05-08T18:22:16.229Z,99163.81
2023-05-08T18:24:43.368Z,99158.72
2023-05-08T18:27:10.143Z,99155.84
2023-05-08T18:29:37.073Z,99150.69
2023-05-08T18:32:04.393Z,99150.53
2023-05-08T18:34:32.811Z,99147.22
2023-05-08T18:36:59.906Z,99151.28
2023-05-08T18:39:27.787Z,99152.88
2023-05-08T18:41:54.597Z,99148.53
2023-05-08T18:44:21.395Z,99141.75
2023-05-08T18:46:48.244Z,99141.28
2023-05-08T18:49:15.143Z,99140.34
2023-05-08T18:51:41.909Z,99137.59
2023-05-08T18:54:08.732Z,99138.28
2023-05-08T18:56:35.646Z,99142.31
2023-05-08T18:59:02.808Z,99138.97
2023-05-08T19:01:29.752Z,99139.97
2023-05-08T19:03:56.621Z,99136.28
2023-05-08T19:06:26.571Z,99137.09
2023-05-08T19:08:53.625Z,99135.47
2023-05-08T19:11:20.497Z,99135.00
2023-05-08T19:13:49.831Z,99132.28
2023-05-08T19:16:17.710Z,99130.31
2023-05-08T19:18:44.740Z,99132.28
2023-05-08T19:21:11.605Z,99131.13
2023-05-08T19:23:38.561Z,99132.28
2023-05-08T19:26:05.695Z,99138.53
2023-05-08T19:28:33.148Z,99140.00
2023-05-08T19:31:00.165Z,99138.25
2023-05-08T19:33:27.152Z,99145.66
2023-05-08T19:35:55.211Z,99150.66
2023-05-08T19:38:22.206Z,99148.88
2023-05-08T19:40:56.988Z,99148.72
2023-05-08T19:43:25.966Z,99152.41
2023-05-08T19:45:55.988Z,99151.59
2023-05-08T19:48:25.696Z,99150.34
2023-05-08T19:50:54.844Z,99147.59
2023-05-08T19:53:23.123Z,99142.31
2023-05-08T19:55:49.949Z,99140.88
2023-05-08T19:58:19.572Z,99135.53
2023-05-08T20:03:17.153Z,99133.78
2023-05-08T20:05:44.156Z,99138.13
2023-05-08T20:08:11.275Z,99144.28
2023-05-08T20:10:38.423Z,99136.75
2023-05-08T20:13:05.488Z,99138.34
2023-05-08T20:15:32.479Z,99139.47
2023-05-08T20:17:59.738Z,99133.53
2023-05-08T20:20:29.184Z,99136.75
2023-05-08T20:22:56.272Z,99137.03
2023-05-08T20:25:23.173Z,99145.75
2023-05-08T20:27:50.459Z,99147.34
2023-05-08T20:30:17.322Z,99152.66
2023-05-08T20:32:44.285Z,99151.38
2023-05-08T20:35:11.470Z,99144.13
2023-05-08T20:37:46.453Z,99151.53
2023-05-08T20:40:17.235Z,99152.66
2023-05-08T20:42:44.164Z,99140.91
2023-05-08T20:45:11.742Z,99156.34
2023-05-08T20:47:38.605Z,99149.13
2023-05-08T20:50:06.571Z,99149.78
2023-05-08T20:52:35.226Z,99144.63
2023-05-08T20:55:04.233Z,99141.41
2023-05-08T20:57:31.075Z,99148.47
2023-05-08T20:59:58.103Z,99147.34
2023-05-08T21:02:28.096Z,99143.66
2023-05-08T21:04:56.311Z,99141.88
2023-05-08T21:07:23.116Z,99136.28
2023-05-08T21:09:49.953Z,99136.91
2023-05-08T21:12:17.273Z,99134.19
2023-05-08T21:14:47.076Z,99133.34
2023-05-08T21:17:13.886Z,99134.81
2023-05-08T21:19:41.266Z,99129.50
2023-05-08T21:22:09.609Z,99128.38
2023-05-08T21:24:37.200Z,99130.47
2023-05-08T21:27:04.154Z,99126.13
2023-05-08T21:29:31.156Z,99126.63
2023-05-08T21:31:58.177Z,99123.41
2023-05-08T21:34:24.993Z,99123.88
2023-05-08T21:36:52.145Z,99116.63
2023-05-08T21:39:21.544Z,99130.94
2023-05-08T21:41:48.367Z,99126.31
2023-05-08T21:44:15.873Z,99123.88
2023-05-08T21:46:42.968Z,99127.25
2023-05-08T21:49:10.807Z,99124.22
2023-05-08T21:51:37.694Z,99125.66
2023-05-08T21:54:04.558Z,99112.63
2023-05-08T21:56:31.310Z,99121.63
2023-05-08T21:58:58.083Z,99120.19
2023-05-08T22:01:24.913Z,99108.47
2023-05-08T22:03:51.890Z,99117.75
2023-05-08T22:06:18.801Z,99112.94
2023-05-08T22:08:46.074Z,99116.00
2023-05-08T22:11:13.262Z,99114.06
2023-05-08T22:13:40.038Z,99120.34
2023-05-08T22:16:08.002Z,99118.75
2023-05-08T22:18:34.846Z,99112.81
2023-05-08T22:21:01.713Z,99103.78
2023-05-08T22:23:28.453Z,99096.72
2023-05-08T22:25:55.205Z,99093.97
2023-05-08T22:28:22.104Z,99100.75
2023-05-08T22:30:49.160Z,99096.56
2023-05-08T22:33:15.989Z,99090.78
2023-05-08T22:35:42.805Z,99088.34
2023-05-08T22:38:09.598Z,99089.16
2023-05-08T22:40:36.511Z,99082.09
2023-05-08T22:43:03.841Z,99082.41
2023-05-08T22:45:32.145Z,99079.38
2023-05-08T22:47:59.199Z,99071.97
2023-05-08T22:50:26.685Z,99066.84
2023-05-08T22:52:53.552Z,99064.88
2023-05-08T22:55:27.801Z,99059.75
2023-05-08T22:57:54.701Z,99046.09
2023-05-08T23:00:24.361Z,99058.63
2023-05-08T23:02:51.651Z,99054.13
2023-05-08T23:05:18.623Z,99057.34
2023-05-08T23:07:45.715Z,99050.59
2023-05-08T23:10:14.169Z,99053.66
2023-05-08T23:12:43.364Z,99060.56
2023-05-08T23:15:11.531Z,99057.03
2023-05-08T23:17:38.630Z,99051.91
2023-05-08T23:20:06.466Z,99049.97
2023-05-08T23:22:38.979Z,99054.00
2023-05-08T23:25:09.410Z,99050.13
2023-05-08T23:27:36.160Z,99044.66
2023-05-08T23:30:03.441Z,99050.91
2023-05-08T23:32:30.668Z,99041.94
2023-05-08T23:35:16.482Z,99035.81
2023-05-08T23:37:43.543Z,99044.66
2023-05-08T23:40:10.967Z,99032.44
2023-05-08T23:42:37.981Z,99032.78
2023-05-08T23:45:06.311Z,99037.94
2023-05-08T23:47:33.078Z,99034.84
2023-05-08T23:50:01.333Z,99035.03
2023-05-08T23:52:28.093Z,99031.19
2023-05-08T23:54:54.948Z,99019.44
2023-05-08T23:57:23.292Z,99017.16
2023-05-08T23:59:52.261Z,99020.25
